x

South Santa Rosa Is. Ca (46069) Wave Buoy

1:50 - Tue 24th Jan 2017 All times are PST. -8 hours from GMT.

  • Sig Wave height 14.8ft
  • Swell Direction
  • Peak Period 16s
  • Average Period 11s
  • Wind
    2mph, 4mph gusts
  • Sea Temp 57°f
  • Air Temp 54°f
  • Sea Pressure 1016.2mb
  • South Santa Rosa Is. Ca
  • South Santa Rosa Is. Ca

More Historic Weather Station data

Upgrade to MSW Pro to gain access to the past 30 days of data for over 8000 Wavebouys and Weather Stations around the globe.

Join Pro

Comparision Forecast

View Surf forecast
   
mar. 01/24 1:50 15ft 16s 11s 2 4 mph 1016.2mb 57f 54f
12:50 15ft 16s 11s 2 4 mph 1016.2mb 57f 53f
11:50 14ft 16s 10s 2 7 mph 1016.7mb 57f 53f
10:50 15.5ft 16s 11s 4 7 mph 1017.2mb 56f 53f
9:50 16.5ft 15s 11s 7 11 mph 1016.7mb 56f 52f
8:50 15.5ft 15s 11s 4 9 mph 1016mb 56f 52f
7:50 17.5ft 15s 11s 4 11 mph 1015.3mb 56f 52f
6:50 17.5ft 16s 11s 9 13 mph 1015.1mb 56f 51f
5:50 17.5ft 15s 11s 13 22 mph 1014.7mb 56f 50f
4:50 16.5ft 14s 10s 9 16 mph 1014.4mb 56f 51f
3:50 17.5ft 15s 10s 13 18 mph 1014.3mb 56f 52f
2:50 19.5ft 14s 11s 13 18 mph 1014.5mb 56f 52f
1:50 18ft 15s 11s 16 25 mph 1014.8mb 56f 51f
12:50 17.5ft 15s 11s 18 25 mph 1014.1mb 56f 53f
lun. 01/23 11:50 16ft 13s 10s 20 22 mph 1014.2mb 56f 53f
10:50 18.5ft 15s 11s 20 25 mph 1014.3mb 56f 53f
9:50 15.5ft 15s 10s 20 25 mph 1014mb 56f 53f
8:50 14ft 15s 9s 20 25 mph 1013.7mb 56f 53f
7:50 13ft 15s 9s 22 27 mph 1013.2mb 56f 53f
6:50 15.5ft 14s 9s 18 25 mph 1012.8mb 56f 52f
5:50 14.5ft 15s 9s 18 22 mph 1012.3mb 56f 52f
4:50 14ft 13s 9s 27 34 mph 1012.6mb 56f 52f
3:50 13ft 15s 9s 22 29 mph 1012.3mb 56f 54f
2:50 13.5ft 15s 9s 18 22 mph 1012.1mb 56f 53f
1:50 13.5ft 14s 9s 18 20 mph 1012.1mb 56f 52f
12:50 16.5ft 14s 9s 18 22 mph 1012.4mb 56f 53f
11:50 14.5ft 14s 9s 18 22 mph 1012.9mb 56f 53f
10:50 15.5ft 13s 9s 18 25 mph 1012.9mb 56f 54f
9:50 15ft 13s 9s 20 22 mph 1012.8mb 56f 53f
8:50 15ft 15s 9s 16 20 mph 1011.9mb 56f 51f
7:50 15.5ft 12s 9s 22 27 mph 1011.3mb 56f 54f
6:50 14.5ft 14s 9s 20 22 mph 1011.1mb 56f 53f
5:50 15.5ft 13s 9s 13 18 mph 1011mb 56f 54f
4:50 13ft 13s 9s 13 18 mph 1010.9mb 56f 54f
3:50 14ft 15s 8s 20 25 mph 1011.4mb 56f 52f
2:50 14ft 13s 8s 25 29 mph 1011.3mb 56f 56f
1:50 15.5ft 13s 9s 18 22 mph 1011.6mb 56f 56f
12:50 13.5ft 15s 8s 22 27 mph 1011.8mb 56f 56f
dim. 01/22 11:50 13ft 15s 9s 20 25 mph 1012.1mb 56f 56f
10:50 13ft 16s 9s 20 27 mph 1012.3mb 56f 56f
9:50 14ft 15s 9s 20 27 mph 1011.7mb 56f 56f
8:50 13ft 16s 9s 25 31 mph 1011.5mb 56f 56f
7:50 13ft 14s 9s 18 22 mph 1011.3mb 57f 57f
6:50 12.5ft 16s 9s 16 20 mph 1011.1mb 57f 57f
5:50 14ft 16s 10s 16 20 mph 1011.1mb 57f 57f
4:50 15ft 16s 9s 11 16 mph 1011.2mb 57f 56f
3:50 14.5ft 15s 9s 9 11 mph 1011mb 57f 55f
2:50 16.5ft 15s 9s 11 18 mph 1011mb 57f 55f
1:50 16.5ft 15s 9s 11 16 mph 1010.8mb 57f 54f
12:50 16.5ft 14s 9s 18 20 mph 1011.3mb 57f 53f
11:50 17.5ft 15s 9s 16 22 mph 1011.7mb 57f 55f
10:50 14.5ft 15s 8s 25 29 mph 1012.2mb 57f 58f
9:50 16ft 16s 9s 20 25 mph 1012.8mb 56f 57f
8:50 15.5ft 16s 9s 25 34 mph 1012.7mb 56f 56f
7:50 13ft 16s 8s 29 36 mph 1012.8mb 56f 55f
6:50 15.5ft 17s 9s 27 34 mph 1013.2mb 56f 55f
5:50 16.5ft 17s 10s 25 34 mph 1014mb 56f 55f
4:50 17ft 16s 10s 25 34 mph 1014.3mb 56f 56f
3:50 16.5ft 16s 11s 27 34 mph 1014.6mb 57f 56f
2:50 16.5ft 17s 11s 22 31 mph 1015.5mb 57f 55f
1:50 18.5ft 17s 12s 22 29 mph 1016.1mb 57f 55f
12:50 21ft 19s 13s 20 31 mph 1016.6mb 57f 56f
sam. 01/21 11:50 20ft 19s 13s 18 25 mph 1016.8mb 57f 56f
10:50 21.5ft 17s 13s 18 27 mph 1016.6mb 57f 56f
9:50 20.5ft 19s 13s 11 18 mph 1017.8mb 57f 56f
8:50 21.5ft 19s 13s 11 18 mph 1016.8mb 57f 56f
7:50 25ft 19s 14s 9 16 mph 1016.7mb 57f 56f
6:50 25.5ft 19s 13s 9 13 mph 1016.9mb 57f 56f
5:50 23.5ft 19s 13s 9 16 mph 1016.3mb 57f 56f
4:50 23.5ft 19s 13s 7 13 mph 1015.2mb 57f 56f
3:50 25.5ft 17s 13s 7 13 mph 1015.1mb 57f 56f
2:50 24ft 16s 13s 9 16 mph 1015.5mb 57f 56f
1:50 26ft 17s 13s 9 16 mph 1015.1mb 57f 56f
12:50 28.5ft 17s 13s 9 16 mph 1015.1mb 57f 56f
11:50 23.5ft 16s 12s 11 20 mph 1015.1mb 57f 56f
10:50 25ft 17s 12s 11 18 mph 1015.3mb 57f 56f
9:50 23.5ft 16s 12s 13 20 mph 1014.2mb 57f 55f
8:50 22.5ft 16s 11s 16 20 mph 1012.9mb 57f 54f
7:50 20ft 16s 11s 13 18 mph 1011.6mb 57f 53f
6:50 19.5ft 15s 11s 20 27 mph 1010.1mb 57f 55f
5:50 18ft 15s 10s 22 29 mph 1008.2mb 57f 55f
4:50 18.5ft 15s 10s 25 31 mph 1006.9mb 57f 55f
3:50 18ft 16s 10s 27 34 mph 1006.8mb 57f 55f
2:50 17.5ft 13s 10s 22 29 mph 1006mb 57f 55f
1:50 16ft 15s 10s 22 27 mph 1004.9mb 57f 53f
12:50 16ft 16s 10s 20 25 mph 1004.4mb 57f 54f
ven. 01/20 11:50 15.5ft 14s 9s 18 22 mph 1004.5mb 57f 50f